sensor_id;sensor_type;location;lat;lon;timestamp;pressure;altitude;pressure_sealevel;temperature;humidity
64739;BME280;51175;51.186;0.276;2023-05-29T00:00:20;102195.19;;;17.74;49.64
64739;BME280;51175;51.186;0.276;2023-05-29T00:00:51;102186.34;;;17.74;49.86
64739;BME280;51175;51.186;0.276;2023-05-29T00:01:22;102197.03;;;17.74;49.78
64739;BME280;51175;51.186;0.276;2023-05-29T00:01:54;102187.16;;;17.74;49.74
64739;BME280;51175;51.186;0.276;2023-05-29T00:02:24;102191.69;;;17.74;49.96
64739;BME280;51175;51.186;0.276;2023-05-29T00:02:55;102193.59;;;17.73;49.71
64739;BME280;51175;51.186;0.276;2023-05-29T00:03:25;102192.50;;;17.74;50.02
64739;BME280;51175;51.186;0.276;2023-05-29T00:03:56;102184.78;;;17.73;49.67
64739;BME280;51175;51.186;0.276;2023-05-29T00:04:26;102192.78;;;17.73;49.63
64739;BME280;51175;51.186;0.276;2023-05-29T00:04:57;102190.09;;;17.73;49.71
64739;BME280;51175;51.186;0.276;2023-05-29T00:05:27;102180.50;;;17.72;49.85
64739;BME280;51175;51.186;0.276;2023-05-29T00:05:57;102182.34;;;17.71;50.05
64739;BME280;51175;51.186;0.276;2023-05-29T00:06:30;102183.16;;;17.72;49.88
64739;BME280;51175;51.186;0.276;2023-05-29T00:07:00;102186.88;;;17.71;49.66
64739;BME280;51175;51.186;0.276;2023-05-29T00:07:31;102184.22;;;17.71;49.72
64739;BME280;51175;51.186;0.276;2023-05-29T00:08:05;102192.25;;;17.71;49.86
64739;BME280;51175;51.186;0.276;2023-05-29T00:08:36;102183.16;;;17.72;49.91
64739;BME280;51175;51.186;0.276;2023-05-29T00:09:07;102185.31;;;17.70;49.98
64739;BME280;51175;51.186;0.276;2023-05-29T00:09:37;102187.97;;;17.70;49.93
64739;BME280;51175;51.186;0.276;2023-05-29T00:10:09;102190.66;;;17.70;50.07
64739;BME280;51175;51.186;0.276;2023-05-29T00:10:40;102187.97;;;17.70;50.16
64739;BME280;51175;51.186;0.276;2023-05-29T00:11:11;102185.31;;;17.70;49.78
64739;BME280;51175;51.186;0.276;2023-05-29T00:11:41;102187.97;;;17.70;49.52
64739;BME280;51175;51.186;0.276;2023-05-29T00:12:12;102187.16;;;17.69;49.93
64739;BME280;51175;51.186;0.276;2023-05-29T00:12:42;102185.31;;;17.70;49.93
64739;BME280;51175;51.186;0.276;2023-05-29T00:13:13;102183.44;;;17.70;50.19
64739;BME280;51175;51.186;0.276;2023-05-29T00:13:43;102183.72;;;17.69;50.03
64739;BME280;51175;51.186;0.276;2023-05-29T00:14:13;102182.91;;;17.68;49.88
64739;BME280;51175;51.186;0.276;2023-05-29T00:14:45;102189.06;;;17.69;50.00
64739;BME280;51175;51.186;0.276;2023-05-29T00:15:15;102189.31;;;17.67;50.01
64739;BME280;51175;51.186;0.276;2023-05-29T00:15:46;102186.66;;;17.67;49.94
64739;BME280;51175;51.186;0.276;2023-05-29T00:16:16;102189.31;;;17.67;50.10
64739;BME280;51175;51.186;0.276;2023-05-29T00:16:48;102187.69;;;17.66;49.93
64739;BME280;51175;51.186;0.276;2023-05-29T00:17:21;102186.88;;;17.66;50.21
64739;BME280;51175;51.186;0.276;2023-05-29T00:17:52;102195.72;;;17.66;49.86
64739;BME280;51175;51.186;0.276;2023-05-29T00:18:22;102190.38;;;17.66;49.96
64739;BME280;51175;51.186;0.276;2023-05-29T00:18:55;102194.13;;;17.65;49.96
64739;BME280;51175;51.186;0.276;2023-05-29T00:19:26;102187.97;;;17.65;49.90
64739;BME280;51175;51.186;0.276;2023-05-29T00:19:58;102201.31;;;17.65;49.99
64739;BME280;51175;51.186;0.276;2023-05-29T00:20:29;102195.97;;;17.65;49.87
64739;BME280;51175;51.186;0.276;2023-05-29T00:20:59;102190.63;;;17.65;49.97
64739;BME280;51175;51.186;0.276;2023-05-29T00:21:29;102187.97;;;17.65;49.73
64739;BME280;51175;51.186;0.276;2023-05-29T00:22:00;102187.97;;;17.65;49.80
64739;BME280;51175;51.186;0.276;2023-05-29T00:22:30;102195.16;;;17.64;50.11
64739;BME280;51175;51.186;0.276;2023-05-29T00:23:01;102194.38;;;17.64;50.03
64739;BME280;51175;51.186;0.276;2023-05-29T00:23:36;102189.81;;;17.64;50.03
64739;BME280;51175;51.186;0.276;2023-05-29T00:24:06;102187.41;;;17.62;50.14
64739;BME280;51175;51.186;0.276;2023-05-29T00:24:37;102192.75;;;17.62;49.88
64739;BME280;51175;51.186;0.276;2023-05-29T00:25:07;102189.03;;;17.64;50.30
64739;BME280;51175;51.186;0.276;2023-05-29T00:25:38;102186.38;;;17.64;50.00
64739;BME280;51175;51.186;0.276;2023-05-29T00:26:10;102197.84;;;17.64;50.26
64739;BME280;51175;51.186;0.276;2023-05-29T00:26:40;102191.97;;;17.62;50.06
64739;BME280;51175;51.186;0.276;2023-05-29T00:27:12;102189.03;;;17.64;49.83
64739;BME280;51175;51.186;0.276;2023-05-29T00:27:42;102182.06;;;17.62;50.18
64739;BME280;51175;51.186;0.276;2023-05-29T00:28:13;102188.50;;;17.61;49.87
64739;BME280;51175;51.186;0.276;2023-05-29T00:28:43;102191.97;;;17.62;50.09
64739;BME280;51175;51.186;0.276;2023-05-29T00:29:13;102194.66;;;17.62;50.14
64739;BME280;51175;51.186;0.276;2023-05-29T00:29:45;102183.16;;;17.61;49.81
64739;BME280;51175;51.186;0.276;2023-05-29T00:30:16;102193.84;;;17.61;50.07
64739;BME280;51175;51.186;0.276;2023-05-29T00:30:46;102178.88;;;17.60;49.90
64739;BME280;51175;51.186;0.276;2023-05-29T00:31:17;102192.25;;;17.60;49.93
64739;BME280;51175;51.186;0.276;2023-05-29T00:31:47;102191.44;;;17.60;50.06
64739;BME280;51175;51.186;0.276;2023-05-29T00:32:18;102183.69;;;17.58;50.08
64739;BME280;51175;51.186;0.276;2023-05-29T00:32:48;102188.22;;;17.58;49.91
64739;BME280;51175;51.186;0.276;2023-05-29T00:33:19;102189.03;;;17.58;50.31
64739;BME280;51175;51.186;0.276;2023-05-29T00:33:50;102182.09;;;17.57;49.95
64739;BME280;51175;51.186;0.276;2023-05-29T00:34:22;102187.16;;;17.59;50.26
64739;BME280;51175;51.186;0.276;2023-05-29T00:34:54;102179.41;;;17.57;49.96
64739;BME280;51175;51.186;0.276;2023-05-29T00:35:25;102187.44;;;17.57;50.34
64739;BME280;51175;51.186;0.276;2023-05-29T00:35:55;102189.28;;;17.57;50.09
64739;BME280;51175;51.186;0.276;2023-05-29T00:36:25;102185.03;;;17.56;50.16
64739;BME280;51175;51.186;0.276;2023-05-29T00:36:56;102173.53;;;17.55;50.18
64739;BME280;51175;51.186;0.276;2023-05-29T00:37:27;102183.13;;;17.56;50.01
64739;BME280;51175;51.186;0.276;2023-05-29T00:37:57;102189.81;;;17.54;50.07
64739;BME280;51175;51.186;0.276;2023-05-29T00:38:28;102183.66;;;17.53;50.26
64739;BME280;51175;51.186;0.276;2023-05-29T00:38:58;102185.28;;;17.54;50.12
64739;BME280;51175;51.186;0.276;2023-05-29T00:39:29;102183.66;;;17.53;50.41
64739;BME280;51175;51.186;0.276;2023-05-29T00:39:59;102174.88;;;17.53;50.32
64739;BME280;51175;51.186;0.276;2023-05-29T00:40:29;102186.34;;;17.53;50.26
64739;BME280;51175;51.186;0.276;2023-05-29T00:41:00;102186.34;;;17.53;50.08
64739;BME280;51175;51.186;0.276;2023-05-29T00:41:32;102183.66;;;17.53;50.21
64739;BME280;51175;51.186;0.276;2023-05-29T00:42:03;102186.59;;;17.52;50.16
64739;BME280;51175;51.186;0.276;2023-05-29T00:42:33;102189.28;;;17.52;50.08
64739;BME280;51175;51.186;0.276;2023-05-29T00:43:04;102187.41;;;17.52;50.29
64739;BME280;51175;51.186;0.276;2023-05-29T00:43:34;102183.94;;;17.52;50.24
64739;BME280;51175;51.186;0.276;2023-05-29T00:44:05;102181.53;;;17.50;50.09
64739;BME280;51175;51.186;0.276;2023-05-29T00:44:35;102185.81;;;17.51;50.45
64739;BME280;51175;51.186;0.276;2023-05-29T00:45:06;102187.69;;;17.50;49.98
64739;BME280;51175;51.186;0.276;2023-05-29T00:45:37;102190.34;;;17.50;50.35
64739;BME280;51175;51.186;0.276;2023-05-29T00:46:09;102184.19;;;17.50;50.38
64739;BME280;51175;51.186;0.276;2023-05-29T00:46:39;102187.69;;;17.50;50.32
64739;BME280;51175;51.186;0.276;2023-05-29T00:47:10;102185.81;;;17.51;50.09
64739;BME280;51175;51.186;0.276;2023-05-29T00:47:41;102191.44;;;17.49;50.19
64739;BME280;51175;51.186;0.276;2023-05-29T00:48:12;102192.22;;;17.50;50.22
64739;BME280;51175;51.186;0.276;2023-05-29T00:48:43;102186.34;;;17.48;50.48
64739;BME280;51175;51.186;0.276;2023-05-29T00:49:14;102193.28;;;17.49;50.19
64739;BME280;51175;51.186;0.276;2023-05-29T00:49:44;102192.47;;;17.48;50.14
64739;BME280;51175;51.186;0.276;2023-05-29T00:50:15;102189.03;;;17.48;50.29
64739;BME280;51175;51.186;0.276;2023-05-29T00:50:46;102189.03;;;17.48;50.27
64739;BME280;51175;51.186;0.276;2023-05-29T00:51:17;102191.69;;;17.48;50.46
64739;BME280;51175;51.186;0.276;2023-05-29T00:51:49;102185.53;;;17.47;50.37
64739;BME280;51175;51.186;0.276;2023-05-29T00:52:21;102188.22;;;17.47;50.41
64739;BME280;51175;51.186;0.276;2023-05-29T00:52:53;102194.38;;;17.48;50.37
64739;BME280;51175;51.186;0.276;2023-05-29T00:53:24;102186.63;;;17.46;50.35
64739;BME280;51175;51.186;0.276;2023-05-29T00:53:57;102191.97;;;17.46;50.20
64739;BME280;51175;51.186;0.276;2023-05-29T00:54:29;102187.41;;;17.47;50.21
64739;BME280;51175;51.186;0.276;2023-05-29T00:55:00;102190.34;;;17.45;50.53
64739;BME280;51175;51.186;0.276;2023-05-29T00:55:33;102188.75;;;17.44;50.50
64739;BME280;51175;51.186;0.276;2023-05-29T00:56:04;102189.56;;;17.45;50.31
64739;BME280;51175;51.186;0.276;2023-05-29T00:56:35;102187.94;;;17.44;50.64
64739;BME280;51175;51.186;0.276;2023-05-29T00:57:05;102186.06;;;17.44;50.50
64739;BME280;51175;51.186;0.276;2023-05-29T00:57:36;102194.09;;;17.44;50.45
64739;BME280;51175;51.186;0.276;2023-05-29T00:58:09;102192.22;;;17.45;50.26
64739;BME280;51175;51.186;0.276;2023-05-29T00:58:39;102187.16;;;17.43;50.43
64739;BME280;51175;51.186;0.276;2023-05-29T00:59:11;102197.81;;;17.43;50.42
64739;BME280;51175;51.186;0.276;2023-05-29T00:59:42;102192.50;;;17.43;50.44
64739;BME280;51175;51.186;0.276;2023-05-29T01:00:14;102189.00;;;17.43;50.34
64739;BME280;51175;51.186;0.276;2023-05-29T01:00:44;102188.19;;;17.42;50.33
64739;BME280;51175;51.186;0.276;2023-05-29T01:01:17;102189.00;;;17.43;50.46
64739;BME280;51175;51.186;0.276;2023-05-29T01:01:51;102194.63;;;17.41;50.65
64739;BME280;51175;51.186;0.276;2023-05-29T01:02:21;102195.41;;;17.42;50.48
64739;BME280;51175;51.186;0.276;2023-05-29T01:02:52;102185.78;;;17.41;50.42
64739;BME280;51175;51.186;0.276;2023-05-29T01:03:24;102187.69;;;17.40;50.40
64739;BME280;51175;51.186;0.276;2023-05-29T01:03:55;102181.53;;;17.40;50.41
64739;BME280;51175;51.186;0.276;2023-05-29T01:04:27;102191.13;;;17.41;50.51
64739;BME280;51175;51.186;0.276;2023-05-29T01:04:58;102187.69;;;17.40;50.35
64739;BME280;51175;51.186;0.276;2023-05-29T01:05:28;102194.88;;;17.40;50.67
64739;BME280;51175;51.186;0.276;2023-05-29T01:05:59;102180.72;;;17.39;50.30
64739;BME280;51175;51.186;0.276;2023-05-29T01:06:30;102189.53;;;17.40;50.52
64739;BME280;51175;51.186;0.276;2023-05-29T01:07:01;102182.59;;;17.39;50.27
64739;BME280;51175;51.186;0.276;2023-05-29T01:07:34;102191.38;;;17.39;50.63
64739;BME280;51175;51.186;0.276;2023-05-29T01:08:05;102182.59;;;17.39;50.38
64739;BME280;51175;51.186;0.276;2023-05-29T01:08:36;102198.63;;;17.39;50.40
64739;BME280;51175;51.186;0.276;2023-05-29T01:09:06;102194.06;;;17.39;50.36
64739;BME280;51175;51.186;0.276;2023-05-29T01:09:37;102195.13;;;17.38;50.70
64739;BME280;51175;51.186;0.276;2023-05-29T01:10:08;102197.81;;;17.38;50.49
64739;BME280;51175;51.186;0.276;2023-05-29T01:10:40;102190.88;;;17.37;50.72
64739;BME280;51175;51.186;0.276;2023-05-29T01:11:28;102190.06;;;17.36;50.55
64739;BME280;51175;51.186;0.276;2023-05-29T01:12:49;102198.34;;;17.35;50.68
64739;BME280;51175;51.186;0.276;2023-05-29T01:13:23;102194.84;;;17.34;50.71
64739;BME280;51175;51.186;0.276;2023-05-29T01:13:57;102194.06;;;17.34;50.80
64739;BME280;51175;51.186;0.276;2023-05-29T01:15:33;102190.59;;;17.33;50.65
64739;BME280;51175;51.186;0.276;2023-05-29T01:16:20;102190.03;;;17.31;50.57
64739;BME280;51175;51.186;0.276;2023-05-29T01:17:19;102194.56;;;17.31;50.55
64739;BME280;51175;51.186;0.276;2023-05-29T01:18:46;102190.56;;;17.28;50.62
64739;BME280;51175;51.186;0.276;2023-05-29T01:19:54;102189.25;;;17.25;50.56
64739;BME280;51175;51.186;0.276;2023-05-29T01:20:39;102191.38;;;17.23;50.68
64739;BME280;51175;51.186;0.276;2023-05-29T01:21:27;102198.28;;;17.24;50.46
64739;BME280;51175;51.186;0.276;2023-05-29T01:22:30;102192.44;;;17.22;50.57
64739;BME280;51175;51.186;0.276;2023-05-29T01:24:49;102199.09;;;17.20;50.76
64739;BME280;51175;51.186;0.276;2023-05-29T01:25:29;102198.31;;;17.19;50.82
64739;BME280;51175;51.186;0.276;2023-05-29T01:26:52;102188.66;;;17.18;50.66
64739;BME280;51175;51.186;0.276;2023-05-29T01:27:26;102200.41;;;17.17;50.87
64739;BME280;51175;51.186;0.276;2023-05-29T01:28:01;102199.63;;;17.17;50.86
64739;BME280;51175;51.186;0.276;2023-05-29T01:28:44;102199.63;;;17.17;50.90
64739;BME280;51175;51.186;0.276;2023-05-29T01:29:26;102199.63;;;17.17;50.79
64739;BME280;51175;51.186;0.276;2023-05-29T01:29:58;102193.50;;;17.16;50.70
64739;BME280;51175;51.186;0.276;2023-05-29T01:30:32;102188.41;;;17.15;50.96
64739;BME280;51175;51.186;0.276;2023-05-29T01:31:04;102199.63;;;17.17;50.78
64739;BME280;51175;51.186;0.276;2023-05-29T01:31:35;102195.59;;;17.14;50.75
64739;BME280;51175;51.186;0.276;2023-05-29T01:32:07;102188.41;;;17.15;50.92
64739;BME280;51175;51.186;0.276;2023-05-29T01:32:38;102193.75;;;17.15;50.77
64739;BME280;51175;51.186;0.276;2023-05-29T01:33:10;102198.00;;;17.16;50.82
64739;BME280;51175;51.186;0.276;2023-05-29T01:33:40;102195.59;;;17.14;50.73
64739;BME280;51175;51.186;0.276;2023-05-29T01:34:11;102199.09;;;17.15;50.74
64739;BME280;51175;51.186;0.276;2023-05-29T01:34:42;102193.75;;;17.15;50.99
64739;BME280;51175;51.186;0.276;2023-05-29T01:35:12;102192.69;;;17.16;50.85
64739;BME280;51175;51.186;0.276;2023-05-29T01:35:43;102192.94;;;17.14;50.94
64739;BME280;51175;51.186;0.276;2023-05-29T01:36:13;102191.09;;;17.15;50.96
64739;BME280;51175;51.186;0.276;2023-05-29T01:36:44;102196.16;;;17.16;50.61
64739;BME280;51175;51.186;0.276;2023-05-29T01:37:16;102189.19;;;17.15;50.64
64739;BME280;51175;51.186;0.276;2023-05-29T01:37:47;102194.53;;;17.15;50.95
64739;BME280;51175;51.186;0.276;2023-05-29T01:38:17;102182.25;;;17.14;50.81
64739;BME280;51175;51.186;0.276;2023-05-29T01:38:51;102192.69;;;17.16;51.08
64739;BME280;51175;51.186;0.276;2023-05-29T01:39:23;102194.53;;;17.15;50.72
64739;BME280;51175;51.186;0.276;2023-05-29T01:39:55;102192.69;;;17.16;50.68
64739;BME280;51175;51.186;0.276;2023-05-29T01:40:25;102186.53;;;17.15;51.02
64739;BME280;51175;51.186;0.276;2023-05-29T01:40:56;102190.28;;;17.14;50.73
64739;BME280;51175;51.186;0.276;2023-05-29T01:41:26;102192.94;;;17.14;50.67
64739;BME280;51175;51.186;0.276;2023-05-29T01:41:57;102189.47;;;17.13;50.81
64739;BME280;51175;51.186;0.276;2023-05-29T01:42:29;102193.75;;;17.15;50.76
64739;BME280;51175;51.186;0.276;2023-05-29T01:42:59;102191.88;;;17.15;50.94
64739;BME280;51175;51.186;0.276;2023-05-29T01:43:30;102191.88;;;17.15;50.69
64739;BME280;51175;51.186;0.276;2023-05-29T01:44:04;102191.09;;;17.15;50.67
64739;BME280;51175;51.186;0.276;2023-05-29T01:44:38;102190.28;;;17.14;50.79
64739;BME280;51175;51.186;0.276;2023-05-29T01:45:10;102194.78;;;17.13;50.73
64739;BME280;51175;51.186;0.276;2023-05-29T01:45:42;102190.53;;;17.12;50.79
64739;BME280;51175;51.186;0.276;2023-05-29T01:46:14;102192.94;;;17.14;50.81
64739;BME280;51175;51.186;0.276;2023-05-29T01:46:45;102193.19;;;17.12;50.67
64739;BME280;51175;51.186;0.276;2023-05-29T01:47:16;102187.59;;;17.14;50.89
64739;BME280;51175;51.186;0.276;2023-05-29T01:47:47;102196.69;;;17.13;50.65
64739;BME280;51175;51.186;0.276;2023-05-29T01:48:18;102192.13;;;17.13;50.90
64739;BME280;51175;51.186;0.276;2023-05-29T01:48:48;102189.47;;;17.13;50.99
64739;BME280;51175;51.186;0.276;2023-05-29T01:49:20;102188.69;;;17.13;50.82
64739;BME280;51175;51.186;0.276;2023-05-29T01:49:52;102188.69;;;17.13;50.63
64739;BME280;51175;51.186;0.276;2023-05-29T01:50:23;102185.19;;;17.12;51.02
64739;BME280;51175;51.186;0.276;2023-05-29T01:50:55;102198.28;;;17.14;50.74
64739;BME280;51175;51.186;0.276;2023-05-29T01:51:26;102190.53;;;17.12;50.82
64739;BME280;51175;51.186;0.276;2023-05-29T01:51:58;102187.88;;;17.12;50.71
64739;BME280;51175;51.186;0.276;2023-05-29T01:52:28;102191.34;;;17.13;50.75
64739;BME280;51175;51.186;0.276;2023-05-29T01:52:59;102189.47;;;17.13;50.86
64739;BME280;51175;51.186;0.276;2023-05-29T01:53:29;102193.19;;;17.12;50.81
64739;BME280;51175;51.186;0.276;2023-05-29T01:53:59;102182.53;;;17.12;50.93
64739;BME280;51175;51.186;0.276;2023-05-29T01:54:30;102189.72;;;17.12;50.99
64739;BME280;51175;51.186;0.276;2023-05-29T01:55:01;102191.59;;;17.11;50.66
64739;BME280;51175;51.186;0.276;2023-05-29T01:55:31;102183.59;;;17.11;50.76
64739;BME280;51175;51.186;0.276;2023-05-29T01:56:02;102190.53;;;17.12;50.72
64739;BME280;51175;51.186;0.276;2023-05-29T01:56:34;102187.06;;;17.12;50.86
64739;BME280;51175;51.186;0.276;2023-05-29T01:57:06;102189.72;;;17.12;51.00
64739;BME280;51175;51.186;0.276;2023-05-29T01:57:37;102189.72;;;17.12;50.67
64739;BME280;51175;51.186;0.276;2023-05-29T01:58:08;102186.53;;;17.10;50.70
64739;BME280;51175;51.186;0.276;2023-05-29T01:58:40;102186.53;;;17.10;50.96
64739;BME280;51175;51.186;0.276;2023-05-29T01:59:12;102190.78;;;17.11;50.92
64739;BME280;51175;51.186;0.276;2023-05-29T01:59:43;102189.19;;;17.10;50.69
64739;BME280;51175;51.186;0.276;2023-05-29T02:00:16;102190.25;;;17.09;50.80
64739;BME280;51175;51.186;0.276;2023-05-29T02:00:47;102184.91;;;17.09;50.89
64739;BME280;51175;51.186;0.276;2023-05-29T02:01:19;102183.88;;;17.10;50.74
64739;BME280;51175;51.186;0.276;2023-05-29T02:01:50;102184.91;;;17.09;50.81
64739;BME280;51175;51.186;0.276;2023-05-29T02:02:21;102187.56;;;17.09;50.88
64739;BME280;51175;51.186;0.276;2023-05-29T02:02:53;102193.72;;;17.09;50.81
64739;BME280;51175;51.186;0.276;2023-05-29T02:03:23;102189.47;;;17.08;50.91
64739;BME280;51175;51.186;0.276;2023-05-29T02:03:54;102188.38;;;17.09;50.76
64739;BME280;51175;51.186;0.276;2023-05-29T02:04:24;102186.78;;;17.08;50.73
64739;BME280;51175;51.186;0.276;2023-05-29T02:04:55;102185.97;;;17.08;50.67
64739;BME280;51175;51.186;0.276;2023-05-29T02:05:26;102184.13;;;17.08;50.71
64739;BME280;51175;51.186;0.276;2023-05-29T02:05:57;102179.81;;;17.07;51.02
64739;BME280;51175;51.186;0.276;2023-05-29T02:06:28;102174.47;;;17.07;50.91
64739;BME280;51175;51.186;0.276;2023-05-29T02:06:59;102187.81;;;17.07;51.00
64739;BME280;51175;51.186;0.276;2023-05-29T02:07:29;102180.88;;;17.06;50.70
64739;BME280;51175;51.186;0.276;2023-05-29T02:07:59;102179.81;;;17.07;50.67
64739;BME280;51175;51.186;0.276;2023-05-29T02:08:30;102181.69;;;17.07;51.10
64739;BME280;51175;51.186;0.276;2023-05-29T02:09:00;102173.69;;;17.07;50.79
64739;BME280;51175;51.186;0.276;2023-05-29T02:09:31;102179.03;;;17.07;50.96
64739;BME280;51175;51.186;0.276;2023-05-29T02:10:02;102178.22;;;17.06;50.90
64739;BME280;51175;51.186;0.276;2023-05-29T02:10:33;102185.41;;;17.06;51.01
64739;BME280;51175;51.186;0.276;2023-05-29T02:11:03;102182.72;;;17.06;50.95
64739;BME280;51175;51.186;0.276;2023-05-29T02:11:33;102184.63;;;17.05;51.08
64739;BME280;51175;51.186;0.276;2023-05-29T02:12:04;102182.72;;;17.06;50.63
64739;BME280;51175;51.186;0.276;2023-05-29T02:12:36;102181.13;;;17.05;50.81
64739;BME280;51175;51.186;0.276;2023-05-29T02:13:06;102174.72;;;17.06;50.72
64739;BME280;51175;51.186;0.276;2023-05-29T02:13:37;102176.06;;;17.03;51.13
64739;BME280;51175;51.186;0.276;2023-05-29T02:14:07;102184.88;;;17.04;50.94
64739;BME280;51175;51.186;0.276;2023-05-29T02:14:38;102178.72;;;17.03;50.84
64739;BME280;51175;51.186;0.276;2023-05-29T02:15:10;102176.88;;;17.04;50.80
64739;BME280;51175;51.186;0.276;2023-05-29T02:15:41;102181.41;;;17.03;50.82
64739;BME280;51175;51.186;0.276;2023-05-29T02:16:11;102178.72;;;17.03;51.05
64739;BME280;51175;51.186;0.276;2023-05-29T02:16:41;102186.75;;;17.03;50.73
64739;BME280;51175;51.186;0.276;2023-05-29T02:17:14;102178.72;;;17.03;50.67
64739;BME280;51175;51.186;0.276;2023-05-29T02:17:45;102177.13;;;17.02;50.95
64739;BME280;51175;51.186;0.276;2023-05-29T02:18:16;102176.31;;;17.02;50.74
64739;BME280;51175;51.186;0.276;2023-05-29T02:18:49;102178.19;;;17.01;51.10
64739;BME280;51175;51.186;0.276;2023-05-29T02:19:19;102181.66;;;17.02;50.89
64739;BME280;51175;51.186;0.276;2023-05-29T02:19:50;102186.19;;;17.01;50.86
64739;BME280;51175;51.186;0.276;2023-05-29T02:20:20;102173.91;;;17.00;50.98
64739;BME280;51175;51.186;0.276;2023-05-29T02:20:51;102178.19;;;17.01;50.95
64739;BME280;51175;51.186;0.276;2023-05-29T02:21:22;102175.78;;;16.99;50.99
64739;BME280;51175;51.186;0.276;2023-05-29T02:21:52;102181.94;;;17.00;50.86
64739;BME280;51175;51.186;0.276;2023-05-29T02:22:22;102181.13;;;16.99;50.89
64739;BME280;51175;51.186;0.276;2023-05-29T02:22:53;102178.44;;;16.99;50.98
64739;BME280;51175;51.186;0.276;2023-05-29T02:23:23;102176.84;;;16.98;51.00
64739;BME280;51175;51.186;0.276;2023-05-29T02:23:53;102173.09;;;16.99;50.85
64739;BME280;51175;51.186;0.276;2023-05-29T02:24:24;102180.31;;;16.99;51.02
64739;BME280;51175;51.186;0.276;2023-05-29T02:24:54;102187.53;;;16.98;50.91
64739;BME280;51175;51.186;0.276;2023-05-29T02:25:25;102184.84;;;16.98;50.93
64739;BME280;51175;51.186;0.276;2023-05-29T02:25:55;102184.84;;;16.98;50.71
64739;BME280;51175;51.186;0.276;2023-05-29T02:26:26;102182.19;;;16.98;50.73
64739;BME280;51175;51.186;0.276;2023-05-29T02:26:56;102180.56;;;16.97;50.80
64739;BME280;51175;51.186;0.276;2023-05-29T02:27:27;102183.22;;;16.97;51.02
64739;BME280;51175;51.186;0.276;2023-05-29T02:27:57;102179.78;;;16.97;51.09
64739;BME280;51175;51.186;0.276;2023-05-29T02:28:28;102189.63;;;16.96;51.10
64739;BME280;51175;51.186;0.276;2023-05-29T02:28:58;102182.72;;;16.95;51.11
64739;BME280;51175;51.186;0.276;2023-05-29T02:29:29;102176.28;;;16.96;50.80
64739;BME280;51175;51.186;0.276;2023-05-29T02:29:59;102176.56;;;16.95;51.00
64739;BME280;51175;51.186;0.276;2023-05-29T02:30:30;102184.56;;;16.95;50.97
64739;BME280;51175;51.186;0.276;2023-05-29T02:31:02;102186.16;;;16.96;51.11
64739;BME280;51175;51.186;0.276;2023-05-29T02:31:32;102179.22;;;16.95;50.95
64739;BME280;51175;51.186;0.276;2023-05-29T02:32:03;102177.63;;;16.94;50.85
64739;BME280;51175;51.186;0.276;2023-05-29T02:32:34;102182.16;;;16.93;50.93
64739;BME280;51175;51.186;0.276;2023-05-29T02:33:05;102180.31;;;16.94;51.17
64739;BME280;51175;51.186;0.276;2023-05-29T02:33:36;102177.63;;;16.94;51.11
64739;BME280;51175;51.186;0.276;2023-05-29T02:34:07;102177.91;;;16.92;51.09
64739;BME280;51175;51.186;0.276;2023-05-29T02:34:37;102172.56;;;16.92;50.92
64739;BME280;51175;51.186;0.276;2023-05-29T02:35:08;102175.22;;;16.92;51.11
64739;BME280;51175;51.186;0.276;2023-05-29T02:35:38;102173.59;;;16.91;50.93
64739;BME280;51175;51.186;0.276;2023-05-29T02:36:08;102170.94;;;16.91;50.88
64739;BME280;51175;51.186;0.276;2023-05-29T02:36:40;102172.81;;;16.91;51.09
64739;BME280;51175;51.186;0.276;2023-05-29T02:37:10;102168.53;;;16.90;50.96
64739;BME280;51175;51.186;0.276;2023-05-29T02:37:41;102174.69;;;16.90;50.97
64739;BME280;51175;51.186;0.276;2023-05-29T02:38:12;102169.34;;;16.90;50.95
64739;BME280;51175;51.186;0.276;2023-05-29T02:38:42;102164.81;;;16.91;51.00
64739;BME280;51175;51.186;0.276;2023-05-29T02:39:12;102166.66;;;16.90;50.94
64739;BME280;51175;51.186;0.276;2023-05-29T02:39:43;102168.53;;;16.90;51.14
64739;BME280;51175;51.186;0.276;2023-05-29T02:40:13;102166.66;;;16.90;51.14
64739;BME280;51175;51.186;0.276;2023-05-29T02:40:44;102177.34;;;16.90;51.13
64739;BME280;51175;51.186;0.276;2023-05-29T02:41:14;102167.75;;;16.89;51.30
64739;BME280;51175;51.186;0.276;2023-05-29T02:41:44;102174.13;;;16.88;51.04
64739;BME280;51175;51.186;0.276;2023-05-29T02:42:15;102169.59;;;16.88;51.12
64739;BME280;51175;51.186;0.276;2023-05-29T02:42:46;102164.25;;;16.88;50.92
64739;BME280;51175;51.186;0.276;2023-05-29T02:43:17;102174.13;;;16.88;50.79
64739;BME280;51175;51.186;0.276;2023-05-29T02:43:47;102169.88;;;16.87;50.97
64739;BME280;51175;51.186;0.276;2023-05-29T02:44:17;102166.38;;;16.86;51.07
64739;BME280;51175;51.186;0.276;2023-05-29T02:44:48;102170.94;;;16.86;50.99
64739;BME280;51175;51.186;0.276;2023-05-29T02:45:18;102174.38;;;16.86;51.05
64739;BME280;51175;51.186;0.276;2023-05-29T02:45:49;102176.28;;;16.86;51.14
64739;BME280;51175;51.186;0.276;2023-05-29T02:46:19;102172.78;;;16.85;51.23
64739;BME280;51175;51.186;0.276;2023-05-29T02:46:51;102178.13;;;16.85;51.04
64739;BME280;51175;51.186;0.276;2023-05-29T02:47:22;102176.53;;;16.84;51.23
64739;BME280;51175;51.186;0.276;2023-05-29T02:47:52;102177.56;;;16.83;51.02
64739;BME280;51175;51.186;0.276;2023-05-29T02:48:23;102181.06;;;16.84;51.03
64739;BME280;51175;51.186;0.276;2023-05-29T02:48:53;102181.88;;;16.84;51.02
64739;BME280;51175;51.186;0.276;2023-05-29T02:49:23;102175.16;;;16.82;51.21
64739;BME280;51175;51.186;0.276;2023-05-29T02:49:54;102174.91;;;16.83;51.11
64739;BME280;51175;51.186;0.276;2023-05-29T02:50:24;102179.47;;;16.83;50.92
64739;BME280;51175;51.186;0.276;2023-05-29T02:50:55;102181.31;;;16.82;51.02